Terminal Aerodrome Forecast
Issued by NWS

Home | Current Version | Previous Version | Text Only | Print | Product List | Glossary On
Versions: 1 2 3 4 5 6 7 8 9 10 11 12 13 14 15 16 17 18 19
000
FTAK31 PAJN 300537
TAFAGY
TAF
PAGY 300537Z 3006/0106 21010KT P6SM VCSH BKN050
      TEMPO 3006/3010 20015G25KT
     FM301900 20010KT P6SM -RA OVC050
     FM302200 20008KT 6SM -RA OVC035
      AMD LTD TO CLD VIS AND WIND=

USA.gov is the U.S. government's official web portal to all federal, state and local government web resources and services.